Sumter, SC

10:51 AM EST on February 06, 2016 (GMT -0500)
Kingsbury | | Change Station
CLOSE
Current Station
Personal Weather Station
Location: Sumter, SC
Elevation: 157 ft
Nearby Weather Stations
Active Advisory: Lake Wind Advisory

Elev 157 ft 33.89 °N, 80.37 °W | Updated 32 seconds ago

Clear
Clear
45.5 °F
Feels Like 46 °F
N
2.7
Wind Variable Wind from NNW

Today
High -- | Low -- °F
--% Chance of Precip.
Yesterday
High -- | Low -- °F
Precip. -- in
Pressure 30.41 in
Visibility 10.0 miles
Clouds Clear
Windchill 46 °F
Dew Point 28 °F
Humidity 51%
Rainfall 0.00 in
Snow Depth Not available.
7:14 AM 5:56 PM
Waning Crescent, 5% visible
METAR KSMS 061535Z AUTO VRB05KT 10SM CLR 10/03 A3041 RMK AO2
Pressure 30.41 in
Visibility 10.0 miles
Clouds Clear
Windchill 46 °F
Dew Point 28 °F
Humidity 51%
Rainfall 0.00 in
Snow Depth Not available.
7:14 AM 5:56 PM
Waning Crescent, 5% visible
METAR KSMS 061535Z AUTO VRB05KT 10SM CLR 10/03 A3041 RMK AO2

10-Day Weather Forecast

Almanac

Astronomy

Feb. 06, 2016 Rise Set
Actual Time
Civil Twilight
Nautical Twilight
Astronomical Twilight
Moon
Length of Visible Light
Length of Day
Tomorrow will be .
, % of the Moon is Illuminated

Today's Extremes

State Highs State Lows

Community

WunderPhotos

Upload Photos

1,890,987 photos uploaded!

WunderBlog® & News

Nearby

Air Quality

  Air Quality AQ Index Pollutant
Not available.

Snow Depth

Station Depth Elevation

Earthquake Activity

City Distance Mag. Time & Date
Minimum magnitude displayed is 2.5.

Coastal Water Temperatures

Place Temperature

Stations

Nearby Weather Stations

Station Location Temp. Windchill Dew Point Humidity Wind Precip. Elev Updated Type
                   

Watches & Warnings

Lake Wind Advisory
Issued: 4:18 AM EST Feb. 6, 2016 – National Weather Service

... Lake Wind Advisory in effect from 4 am to 7 PM EST Sunday...

The National Weather Service in Columbia has issued a lake Wind
Advisory... which is in effect from 4 am to 7 PM EST Sunday.

* Winds... northwest 20 to 30 knots.

* Impacts... strong winds and rough chop will create hazardous
conditions for small craft and personal watercraft.

Precautionary/preparedness actions...

A lake Wind Advisory indicates that winds will cause rough chop
on area lakes. Small boats will be especially prone to capsizing.